sensor_id;sensor_type;location;lat;lon;timestamp;pressure;altitude;pressure_sealevel;temperature;humidity
51687;BME280;37774;52.192;4.584;2022-09-27T00:00:46;102271.34;;;10.36;100.00
51687;BME280;37774;52.192;4.584;2022-09-27T00:03:13;102280.94;;;10.39;100.00
51687;BME280;37774;52.192;4.584;2022-09-27T00:05:40;102148.94;;;9.62;100.00
51687;BME280;37774;52.192;4.584;2022-09-27T00:08:06;102206.59;;;9.95;100.00
51687;BME280;37774;52.192;4.584;2022-09-27T00:10:33;102211.06;;;10.02;100.00
51687;BME280;37774;52.192;4.584;2022-09-27T00:13:00;102201.53;;;10.01;100.00
51687;BME280;37774;52.192;4.584;2022-09-27T00:15:28;102266.28;;;10.43;100.00
51687;BME280;37774;52.192;4.584;2022-09-27T00:17:55;102267.06;;;10.37;100.00
51687;BME280;37774;52.192;4.584;2022-09-27T00:20:22;102274.94;;;10.40;100.00
51687;BME280;37774;52.192;4.584;2022-09-27T00:22:49;102210.06;;;9.96;100.00
51687;BME280;37774;52.192;4.584;2022-09-27T00:25:16;102240.97;;;10.31;100.00
51687;BME280;37774;52.192;4.584;2022-09-27T00:27:43;102179.81;;;9.98;100.00
51687;BME280;37774;52.192;4.584;2022-09-27T00:30:11;102227.22;;;10.38;100.00
51687;BME280;37774;52.192;4.584;2022-09-27T00:32:39;102167.94;;;10.12;100.00
51687;BME280;37774;52.192;4.584;2022-09-27T00:35:07;102199.63;;;10.45;100.00
51687;BME280;37774;52.192;4.584;2022-09-27T00:37:33;102179.00;;;10.57;100.00
51687;BME280;37774;52.192;4.584;2022-09-27T00:40:00;102097.94;;;10.23;100.00
51687;BME280;37774;52.192;4.584;2022-09-27T00:42:27;102127.81;;;10.53;100.00
51687;BME280;37774;52.192;4.584;2022-09-27T00:45:08;102087.00;;;10.44;100.00
51687;BME280;37774;52.192;4.584;2022-09-27T00:47:42;102075.84;;;10.53;100.00
51687;BME280;37774;52.192;4.584;2022-09-27T00:50:20;102055.09;;;10.56;100.00
51687;BME280;37774;52.192;4.584;2022-09-27T00:52:57;102046.44;;;10.56;100.00
51687;BME280;37774;52.192;4.584;2022-09-27T00:55:27;102021.28;;;10.56;100.00
51687;BME280;37774;52.192;4.584;2022-09-27T00:57:59;101957.72;;;10.29;100.00
51687;BME280;37774;52.192;4.584;2022-09-27T01:00:26;101886.31;;;9.94;100.00
51687;BME280;37774;52.192;4.584;2022-09-27T01:02:54;101959.88;;;10.61;100.00
51687;BME280;37774;52.192;4.584;2022-09-27T01:05:26;101939.06;;;10.63;100.00
51687;BME280;37774;52.192;4.584;2022-09-27T01:07:53;101758.81;;;9.67;100.00
51687;BME280;37774;52.192;4.584;2022-09-27T01:10:22;101894.03;;;10.62;100.00
51687;BME280;37774;52.192;4.584;2022-09-27T01:12:56;101839.31;;;10.50;100.00
51687;BME280;37774;52.192;4.584;2022-09-27T01:15:28;101837.56;;;10.47;100.00
51687;BME280;37774;52.192;4.584;2022-09-27T01:18:22;101793.19;;;10.30;100.00
51687;BME280;37774;52.192;4.584;2022-09-27T01:21:22;101819.41;;;10.54;100.00
51687;BME280;37774;52.192;4.584;2022-09-27T01:24:09;101811.72;;;10.64;100.00
51687;BME280;37774;52.192;4.584;2022-09-27T01:26:49;101821.28;;;10.69;100.00
51687;BME280;37774;52.192;4.584;2022-09-27T01:29:29;101832.50;;;10.66;100.00
51687;BME280;37774;52.192;4.584;2022-09-27T01:32:10;101704.50;;;9.85;100.00
51687;BME280;37774;52.192;4.584;2022-09-27T01:34:44;101844.66;;;10.67;100.00
51687;BME280;37774;52.192;4.584;2022-09-27T01:37:29;101848.97;;;10.65;100.00
51687;BME280;37774;52.192;4.584;2022-09-27T01:40:03;101794.13;;;10.37;100.00
51687;BME280;37774;52.192;4.584;2022-09-27T01:42:38;101825.53;;;10.59;100.00
51687;BME280;37774;52.192;4.584;2022-09-27T01:45:09;101810.78;;;10.59;100.00
51687;BME280;37774;52.192;4.584;2022-09-27T01:47:42;101803.84;;;10.58;100.00
51687;BME280;37774;52.192;4.584;2022-09-27T01:50:15;101781.41;;;10.66;100.00
51687;BME280;37774;52.192;4.584;2022-09-27T01:52:49;101748.50;;;10.70;100.00
51687;BME280;37774;52.192;4.584;2022-09-27T01:55:21;101718.19;;;10.72;100.00
51687;BME280;37774;52.192;4.584;2022-09-27T01:57:54;101699.97;;;10.71;100.00
51687;BME280;37774;52.192;4.584;2022-09-27T02:00:23;101683.50;;;10.67;100.00
51687;BME280;37774;52.192;4.584;2022-09-27T02:02:54;101665.28;;;10.67;100.00
51687;BME280;37774;52.192;4.584;2022-09-27T02:05:28;101653.97;;;10.59;100.00
51687;BME280;37774;52.192;4.584;2022-09-27T02:07:58;101633.22;;;10.62;100.00
51687;BME280;37774;52.192;4.584;2022-09-27T02:10:30;101617.63;;;10.65;100.00
51687;BME280;37774;52.192;4.584;2022-09-27T02:13:04;101621.16;;;10.75;100.00
51687;BME280;37774;52.192;4.584;2022-09-27T02:15:37;101619.41;;;10.77;100.00
51687;BME280;37774;52.192;4.584;2022-09-27T02:18:13;101625.53;;;10.90;100.00
51687;BME280;37774;52.192;4.584;2022-09-27T02:20:46;101642.88;;;10.97;100.00
51687;BME280;37774;52.192;4.584;2022-09-27T02:23:20;101674.94;;;10.91;100.00
51687;BME280;37774;52.192;4.584;2022-09-27T02:25:53;101713.91;;;10.82;100.00
51687;BME280;37774;52.192;4.584;2022-09-27T02:28:26;101757.84;;;10.43;100.00
51687;BME280;37774;52.192;4.584;2022-09-27T02:30:54;101751.00;;;9.63;100.00
51687;BME280;37774;52.192;4.584;2022-09-27T02:33:28;101741.31;;;9.48;100.00
51687;BME280;37774;52.192;4.584;2022-09-27T02:35:57;101756.94;;;9.53;100.00
51687;BME280;37774;52.192;4.584;2022-09-27T02:38:23;101776.81;;;9.51;100.00
51687;BME280;37774;52.192;4.584;2022-09-27T02:40:51;101773.13;;;9.33;100.00
51687;BME280;37774;52.192;4.584;2022-09-27T02:43:19;101807.88;;;9.46;100.00
51687;BME280;37774;52.192;4.584;2022-09-27T02:45:53;101765.75;;;8.98;100.00
51687;BME280;37774;52.192;4.584;2022-09-27T02:48:31;101869.25;;;9.44;100.00
51687;BME280;37774;52.192;4.584;2022-09-27T02:51:12;101905.47;;;9.37;100.00
51687;BME280;37774;52.192;4.584;2022-09-27T02:53:52;101812.00;;;8.69;100.00
51687;BME280;37774;52.192;4.584;2022-09-27T02:56:26;101983.50;;;9.50;100.00
51687;BME280;37774;52.192;4.584;2022-09-27T02:59:02;102001.66;;;9.50;100.00
51687;BME280;37774;52.192;4.584;2022-09-27T03:01:36;102022.44;;;9.50;100.00
51687;BME280;37774;52.192;4.584;2022-09-27T03:04:12;102039.63;;;9.44;100.00
51687;BME280;37774;52.192;4.584;2022-09-27T03:06:45;102072.56;;;9.49;100.00
51687;BME280;37774;52.192;4.584;2022-09-27T03:09:16;102078.63;;;9.48;100.00
51687;BME280;37774;52.192;4.584;2022-09-27T03:11:43;102098.72;;;9.60;100.00
51687;BME280;37774;52.192;4.584;2022-09-27T03:14:10;102109.94;;;9.59;100.00
51687;BME280;37774;52.192;4.584;2022-09-27T03:16:37;102112.66;;;9.65;100.00
51687;BME280;37774;52.192;4.584;2022-09-27T03:19:04;102116.13;;;9.66;100.00
51687;BME280;37774;52.192;4.584;2022-09-27T03:21:32;101987.53;;;8.81;100.00
51687;BME280;37774;52.192;4.584;2022-09-27T03:23:59;102134.38;;;9.71;100.00
51687;BME280;37774;52.192;4.584;2022-09-27T03:26:26;102132.88;;;9.85;100.00
51687;BME280;37774;52.192;4.584;2022-09-27T03:28:53;102112.97;;;9.86;100.00
51687;BME280;37774;52.192;4.584;2022-09-27T03:31:20;102113.16;;;9.98;100.00
51687;BME280;37774;52.192;4.584;2022-09-27T03:33:47;102105.28;;;9.92;100.00
51687;BME280;37774;52.192;4.584;2022-09-27T03:36:14;102086.31;;;9.98;100.00
51687;BME280;37774;52.192;4.584;2022-09-27T03:38:42;102065.59;;;10.01;100.00
51687;BME280;37774;52.192;4.584;2022-09-27T03:41:08;102059.44;;;9.96;100.00
51687;BME280;37774;52.192;4.584;2022-09-27T03:43:35;102040.47;;;10.00;100.00
51687;BME280;37774;52.192;4.584;2022-09-27T03:46:03;102047.41;;;10.01;100.00
51687;BME280;37774;52.192;4.584;2022-09-27T03:48:30;102052.63;;;10.02;100.00
51687;BME280;37774;52.192;4.584;2022-09-27T03:50:57;102063.88;;;10.03;100.00
51687;BME280;37774;52.192;4.584;2022-09-27T03:53:23;102078.53;;;9.98;100.00
51687;BME280;37774;52.192;4.584;2022-09-27T03:55:52;102087.13;;;9.93;100.00
51687;BME280;37774;52.192;4.584;2022-09-27T03:58:18;102047.53;;;9.52;100.00
51687;BME280;37774;52.192;4.584;2022-09-27T04:00:45;101969.66;;;8.95;100.00
51687;BME280;37774;52.192;4.584;2022-09-27T04:03:12;102125.97;;;9.86;100.00
51687;BME280;37774;52.192;4.584;2022-09-27T04:05:39;102123.19;;;9.75;100.00
51687;BME280;37774;52.192;4.584;2022-09-27T04:08:06;102067.06;;;9.29;100.00
51687;BME280;37774;52.192;4.584;2022-09-27T04:10:35;101985.63;;;8.69;100.00
51687;BME280;37774;52.192;4.584;2022-09-27T04:13:03;102148.28;;;9.76;100.00
51687;BME280;37774;52.192;4.584;2022-09-27T04:15:30;102101.06;;;9.46;100.00
51687;BME280;37774;52.192;4.584;2022-09-27T04:17:57;102146.66;;;9.81;100.00
51687;BME280;37774;52.192;4.584;2022-09-27T04:20:24;102142.41;;;9.86;100.00
51687;BME280;37774;52.192;4.584;2022-09-27T04:22:50;102129.56;;;9.96;100.00
51687;BME280;37774;52.192;4.584;2022-09-27T04:25:17;102109.78;;;10.02;100.00
51687;BME280;37774;52.192;4.584;2022-09-27T04:27:44;102065.50;;;9.94;100.00
51687;BME280;37774;52.192;4.584;2022-09-27T04:30:13;102054.22;;;9.92;100.00
51687;BME280;37774;52.192;4.584;2022-09-27T04:32:41;102057.78;;;9.99;100.00
51687;BME280;37774;52.192;4.584;2022-09-27T04:35:08;102011.69;;;9.84;100.00
51687;BME280;37774;52.192;4.584;2022-09-27T04:37:52;102020.28;;;9.80;100.00
51687;BME280;37774;52.192;4.584;2022-09-27T04:40:19;102081.16;;;10.01;100.00
51687;BME280;37774;52.192;4.584;2022-09-27T04:42:46;102111.19;;;9.83;100.00
51687;BME280;37774;52.192;4.584;2022-09-27T04:45:15;102100.41;;;9.58;100.00
51687;BME280;37774;52.192;4.584;2022-09-27T04:47:42;102116.63;;;9.45;100.00
51687;BME280;37774;52.192;4.584;2022-09-27T04:50:09;102112.97;;;9.33;100.00
51687;BME280;37774;52.192;4.584;2022-09-27T04:52:39;102131.25;;;9.41;100.00
51687;BME280;37774;52.192;4.584;2022-09-27T04:55:07;102138.97;;;9.38;100.00
51687;BME280;37774;52.192;4.584;2022-09-27T04:57:34;102131.06;;;9.30;100.00
51687;BME280;37774;52.192;4.584;2022-09-27T05:00:03;102132.00;;;9.34;100.00
51687;BME280;37774;52.192;4.584;2022-09-27T05:02:31;102120.81;;;9.37;100.00
51687;BME280;37774;52.192;4.584;2022-09-27T05:04:58;102118.31;;;9.43;100.00
51687;BME280;37774;52.192;4.584;2022-09-27T05:07:25;102120.06;;;9.44;100.00
51687;BME280;37774;52.192;4.584;2022-09-27T05:09:53;102140.88;;;9.47;100.00
51687;BME280;37774;52.192;4.584;2022-09-27T05:12:20;102144.44;;;9.52;100.00
51687;BME280;37774;52.192;4.584;2022-09-27T05:14:47;102129.59;;;9.45;100.00
51687;BME280;37774;52.192;4.584;2022-09-27T05:17:13;102070.97;;;9.05;100.00
51687;BME280;37774;52.192;4.584;2022-09-27T05:19:42;101992.25;;;8.54;100.00
51687;BME280;37774;52.192;4.584;2022-09-27T05:22:08;102127.34;;;9.16;100.00
51687;BME280;37774;52.192;4.584;2022-09-27T05:24:35;102200.63;;;9.50;100.00
51687;BME280;37774;52.192;4.584;2022-09-27T05:27:02;102204.19;;;9.55;100.00
51687;BME280;37774;52.192;4.584;2022-09-27T05:29:32;102129.72;;;9.03;100.00
51687;BME280;37774;52.192;4.584;2022-09-27T05:31:59;102221.47;;;9.55;100.00
51687;BME280;37774;52.192;4.584;2022-09-27T05:34:26;102229.25;;;9.55;100.00
51687;BME280;37774;52.192;4.584;2022-09-27T05:36:54;102191.59;;;9.29;100.00
51687;BME280;37774;52.192;4.584;2022-09-27T05:39:21;102187.97;;;9.23;100.00
51687;BME280;37774;52.192;4.584;2022-09-27T05:41:48;102239.69;;;9.58;100.00
51687;BME280;37774;52.192;4.584;2022-09-27T05:44:15;102171.41;;;9.14;100.00
51687;BME280;37774;52.192;4.584;2022-09-27T05:46:42;102120.03;;;8.95;100.00
51687;BME280;37774;52.192;4.584;2022-09-27T05:49:10;102210.22;;;9.54;100.00
51687;BME280;37774;52.192;4.584;2022-09-27T05:51:37;102080.84;;;8.81;100.00
51687;BME280;37774;52.192;4.584;2022-09-27T05:54:05;102124.66;;;9.11;100.00
51687;BME280;37774;52.192;4.584;2022-09-27T05:56:32;102166.06;;;9.53;100.00
51687;BME280;37774;52.192;4.584;2022-09-27T05:58:59;102118.09;;;9.30;100.00
51687;BME280;37774;52.192;4.584;2022-09-27T06:01:25;102154.13;;;9.61;100.00
51687;BME280;37774;52.192;4.584;2022-09-27T06:03:52;102087.88;;;9.34;100.00
51687;BME280;37774;52.192;4.584;2022-09-27T06:06:20;102124.63;;;9.57;100.00
51687;BME280;37774;52.192;4.584;2022-09-27T06:08:47;102124.03;;;9.74;100.00
51687;BME280;37774;52.192;4.584;2022-09-27T06:11:16;102106.84;;;9.82;100.00
51687;BME280;37774;52.192;4.584;2022-09-27T06:13:42;102108.69;;;9.88;100.00
51687;BME280;37774;52.192;4.584;2022-09-27T06:16:10;102075.59;;;9.76;100.00
51687;BME280;37774;52.192;4.584;2022-09-27T06:18:37;101989.22;;;9.28;100.00
51687;BME280;37774;52.192;4.584;2022-09-27T06:21:05;102049.53;;;9.68;100.00
51687;BME280;37774;52.192;4.584;2022-09-27T06:23:31;102107.34;;;10.13;100.00
51687;BME280;37774;52.192;4.584;2022-09-27T06:26:01;102100.41;;;10.12;100.00
51687;BME280;37774;52.192;4.584;2022-09-27T06:28:30;102107.53;;;10.26;100.00
51687;BME280;37774;52.192;4.584;2022-09-27T06:30:57;102105.81;;;10.29;100.00
51687;BME280;37774;52.192;4.584;2022-09-27T06:33:26;102026.41;;;9.84;100.00
51687;BME280;37774;52.192;4.584;2022-09-27T06:35:53;102093.75;;;10.33;100.00
51687;BME280;37774;52.192;4.584;2022-09-27T06:38:20;102076.44;;;10.32;100.00
51687;BME280;37774;52.192;4.584;2022-09-27T06:40:47;102023.41;;;10.19;100.00
51687;BME280;37774;52.192;4.584;2022-09-27T06:43:16;102054.13;;;10.46;100.00
51687;BME280;37774;52.192;4.584;2022-09-27T06:45:45;102051.59;;;10.52;100.00
51687;BME280;37774;52.192;4.584;2022-09-27T06:48:14;101952.16;;;10.00;100.00
51687;BME280;37774;52.192;4.584;2022-09-27T06:50:42;102043.91;;;10.62;100.00
51687;BME280;37774;52.192;4.584;2022-09-27T06:53:11;101953.13;;;10.06;100.00
51687;BME280;37774;52.192;4.584;2022-09-27T06:55:39;102038.69;;;10.62;100.00
51687;BME280;37774;52.192;4.584;2022-09-27T06:58:08;101672.50;;;8.41;100.00
51687;BME280;37774;52.192;4.584;2022-09-27T07:00:54;101981.00;;;10.20;100.00
51687;BME280;37774;52.192;4.584;2022-09-27T07:03:22;102061.25;;;10.61;100.00
51687;BME280;37774;52.192;4.584;2022-09-27T07:05:54;101898.88;;;9.60;100.00
51687;BME280;37774;52.192;4.584;2022-09-27T07:08:24;102042.84;;;10.46;100.00
51687;BME280;37774;52.192;4.584;2022-09-27T07:10:53;102081.97;;;10.57;100.00
51687;BME280;37774;52.192;4.584;2022-09-27T07:13:21;102077.75;;;10.05;100.00
51687;BME280;37774;52.192;4.584;2022-09-27T07:15:48;102049.16;;;9.45;100.00
51687;BME280;37774;52.192;4.584;2022-09-27T07:18:16;102000.50;;;8.81;100.00
51687;BME280;37774;52.192;4.584;2022-09-27T07:20:43;102157.25;;;9.43;100.00
51687;BME280;37774;52.192;4.584;2022-09-27T07:23:10;102184.66;;;9.30;100.00
51687;BME280;37774;52.192;4.584;2022-09-27T07:25:37;102214.09;;;9.30;100.00
51687;BME280;37774;52.192;4.584;2022-09-27T07:28:05;102140.03;;;8.59;100.00
51687;BME280;37774;52.192;4.584;2022-09-27T07:30:33;102290.03;;;9.23;100.00
51687;BME280;37774;52.192;4.584;2022-09-27T07:33:02;102302.69;;;9.09;100.00
51687;BME280;37774;52.192;4.584;2022-09-27T07:35:30;102315.53;;;9.03;100.00
51687;BME280;37774;52.192;4.584;2022-09-27T07:37:57;102330.28;;;9.05;100.00
51687;BME280;37774;52.192;4.584;2022-09-27T07:40:25;102321.44;;;8.97;100.00
51687;BME280;37774;52.192;4.584;2022-09-27T07:42:55;102280.63;;;8.52;100.00
51687;BME280;37774;52.192;4.584;2022-09-27T07:45:22;102348.25;;;8.98;100.00
51687;BME280;37774;52.192;4.584;2022-09-27T07:47:49;102292.41;;;8.75;100.00
51687;BME280;37774;52.192;4.584;2022-09-27T07:50:17;102108.91;;;7.47;100.00
51687;BME280;37774;52.192;4.584;2022-09-27T07:52:46;102307.69;;;8.63;100.00
51687;BME280;37774;52.192;4.584;2022-09-27T07:55:14;102384.19;;;8.82;100.00
51687;BME280;37774;52.192;4.584;2022-09-27T07:57:41;102384.50;;;8.61;100.00
51687;BME280;37774;52.192;4.584;2022-09-27T08:00:11;102398.47;;;8.66;100.00
51687;BME280;37774;52.192;4.584;2022-09-27T08:02:39;102408.56;;;8.55;100.00
51687;BME280;37774;52.192;4.584;2022-09-27T08:05:06;102331.00;;;7.96;100.00
51687;BME280;37774;52.192;4.584;2022-09-27T08:07:33;102393.13;;;8.28;100.00
51687;BME280;37774;52.192;4.584;2022-09-27T08:10:02;102403.75;;;8.37;100.00
51687;BME280;37774;52.192;4.584;2022-09-27T08:12:28;102429.06;;;8.47;100.00
51687;BME280;37774;52.192;4.584;2022-09-27T08:14:55;102441.38;;;8.55;100.00
51687;BME280;37774;52.192;4.584;2022-09-27T08:17:26;102460.59;;;8.63;100.00
51687;BME280;37774;52.192;4.584;2022-09-27T08:19:53;102485.06;;;8.74;100.00
51687;BME280;37774;52.192;4.584;2022-09-27T08:22:20;102509.44;;;8.81;100.00
51687;BME280;37774;52.192;4.584;2022-09-27T08:24:47;102533.13;;;8.95;100.00
51687;BME280;37774;52.192;4.584;2022-09-27T08:27:16;102537.78;;;9.07;100.00
51687;BME280;37774;52.192;4.584;2022-09-27T08:29:43;102539.28;;;8.99;100.00
51687;BME280;37774;52.192;4.584;2022-09-27T08:32:11;102538.38;;;8.97;100.00
51687;BME280;37774;52.192;4.584;2022-09-27T08:34:38;102562.28;;;9.18;100.00
51687;BME280;37774;52.192;4.584;2022-09-27T08:37:06;102572.13;;;9.32;100.00
51687;BME280;37774;52.192;4.584;2022-09-27T08:39:33;102510.84;;;9.02;100.00
51687;BME280;37774;52.192;4.584;2022-09-27T08:42:05;102511.97;;;9.12;100.00
51687;BME280;37774;52.192;4.584;2022-09-27T08:44:43;102592.13;;;9.71;100.00
51687;BME280;37774;52.192;4.584;2022-09-27T08:47:16;102598.53;;;9.86;100.00
51687;BME280;37774;52.192;4.584;2022-09-27T08:49:48;102604.78;;;9.94;100.00
51687;BME280;37774;52.192;4.584;2022-09-27T08:52:18;102617.16;;;10.06;100.00
51687;BME280;37774;52.192;4.584;2022-09-27T08:54:47;102613.84;;;10.12;100.00
51687;BME280;37774;52.192;4.584;2022-09-27T08:57:15;102623.38;;;10.11;100.00
51687;BME280;37774;52.192;4.584;2022-09-27T08:59:47;102625.72;;;10.00;100.00
51687;BME280;37774;52.192;4.584;2022-09-27T09:02:18;102580.16;;;9.76;100.00
51687;BME280;37774;52.192;4.584;2022-09-27T09:04:48;102547.03;;;9.66;100.00
51687;BME280;37774;52.192;4.584;2022-09-27T09:07:28;102569.13;;;9.87;100.00
51687;BME280;37774;52.192;4.584;2022-09-27T09:10:02;102562.34;;;9.93;100.00
51687;BME280;37774;52.192;4.584;2022-09-27T09:12:41;102554.47;;;9.89;100.00
51687;BME280;37774;52.192;4.584;2022-09-27T09:15:24;102509.84;;;9.67;100.00
51687;BME280;37774;52.192;4.584;2022-09-27T09:18:15;102537.41;;;10.00;100.00
51687;BME280;37774;52.192;4.584;2022-09-27T09:20:54;102398.00;;;9.18;100.00
51687;BME280;37774;52.192;4.584;2022-09-27T09:23:56;102481.56;;;9.81;100.00
51687;BME280;37774;52.192;4.584;2022-09-27T09:26:30;102526.28;;;10.07;100.00
51687;BME280;37774;52.192;4.584;2022-09-27T09:29:19;102523.59;;;10.03;100.00
51687;BME280;37774;52.192;4.584;2022-09-27T09:31:57;102511.28;;;9.94;100.00
51687;BME280;37774;52.192;4.584;2022-09-27T09:34:30;102557.78;;;10.21;100.00
51687;BME280;37774;52.192;4.584;2022-09-27T09:37:02;102574.22;;;10.22;100.00
51687;BME280;37774;52.192;4.584;2022-09-27T09:39:34;102578.31;;;10.09;100.00
51687;BME280;37774;52.192;4.584;2022-09-27T09:42:08;102583.19;;;9.97;100.00
51687;BME280;37774;52.192;4.584;2022-09-27T09:44:42;102531.66;;;9.40;100.00
51687;BME280;37774;52.192;4.584;2022-09-27T09:47:32;102436.94;;;8.84;100.00
51687;BME280;37774;52.192;4.584;2022-09-27T09:50:04;102560.84;;;9.65;100.00
51687;BME280;37774;52.192;4.584;2022-09-27T09:52:38;102519.44;;;9.34;100.00
51687;BME280;37774;52.192;4.584;2022-09-27T09:55:12;102573.41;;;9.85;100.00
51687;BME280;37774;52.192;4.584;2022-09-27T09:57:48;102288.16;;;8.07;100.00
51687;BME280;37774;52.192;4.584;2022-09-27T10:00:18;102565.44;;;9.77;100.00
51687;BME280;37774;52.192;4.584;2022-09-27T10:02:48;102603.44;;;10.12;100.00
51687;BME280;37774;52.192;4.584;2022-09-27T10:05:20;102609.69;;;10.18;100.00
51687;BME280;37774;52.192;4.584;2022-09-27T10:07:48;102622.59;;;10.15;100.00
51687;BME280;37774;52.192;4.584;2022-09-27T10:10:18;102610.97;;;10.01;100.00
51687;BME280;37774;52.192;4.584;2022-09-27T10:12:46;102617.44;;;9.80;100.00
51687;BME280;37774;52.192;4.584;2022-09-27T10:15:15;102613.22;;;9.85;100.00
51687;BME280;37774;52.192;4.584;2022-09-27T10:17:47;102609.72;;;9.83;100.00
51687;BME280;37774;52.192;4.584;2022-09-27T10:20:24;102446.19;;;8.74;100.00
51687;BME280;37774;52.192;4.584;2022-09-27T10:22:54;102559.69;;;9.18;100.00
51687;BME280;37774;52.192;4.584;2022-09-27T10:25:23;102603.31;;;9.33;100.00
51687;BME280;37774;52.192;4.584;2022-09-27T10:27:51;102608.19;;;9.23;100.00
51687;BME280;37774;52.192;4.584;2022-09-27T10:30:23;102488.63;;;8.47;100.00
51687;BME280;37774;52.192;4.584;2022-09-27T10:32:53;102540.22;;;8.69;100.00
51687;BME280;37774;52.192;4.584;2022-09-27T10:35:34;102629.03;;;8.94;100.00
51687;BME280;37774;52.192;4.584;2022-09-27T10:38:22;102571.94;;;8.60;100.00
51687;BME280;37774;52.192;4.584;2022-09-27T10:40:50;102615.56;;;8.75;100.00
51687;BME280;37774;52.192;4.584;2022-09-27T10:43:25;102617.19;;;8.71;100.00
51687;BME280;37774;52.192;4.584;2022-09-27T10:46:00;102615.56;;;8.75;100.00
51687;BME280;37774;52.192;4.584;2022-09-27T10:48:29;102524.03;;;8.16;100.00
51687;BME280;37774;52.192;4.584;2022-09-27T10:50:58;102619.59;;;8.65;100.00
51687;BME280;37774;52.192;4.584;2022-09-27T10:53:26;102617.94;;;8.67;100.00
51687;BME280;37774;52.192;4.584;2022-09-27T10:55:54;102614.22;;;8.59;100.00
51687;BME280;37774;52.192;4.584;2022-09-27T10:58:25;102641.16;;;8.64;100.00
51687;BME280;37774;52.192;4.584;2022-09-27T11:00:57;102690.19;;;8.87;100.00
51687;BME280;37774;52.192;4.584;2022-09-27T11:03:27;102684.28;;;8.91;100.00
51687;BME280;37774;52.192;4.584;2022-09-27T11:05:56;102622.34;;;8.42;100.00
51687;BME280;37774;52.192;4.584;2022-09-27T11:08:31;102713.63;;;8.90;100.00
51687;BME280;37774;52.192;4.584;2022-09-27T11:11:06;102710.09;;;8.88;100.00
51687;BME280;37774;52.192;4.584;2022-09-27T11:13:40;102732.88;;;8.98;100.00
51687;BME280;37774;52.192;4.584;2022-09-27T11:16:18;102717.28;;;8.97;100.00
51687;BME280;37774;52.192;4.584;2022-09-27T11:18:56;102721.22;;;9.13;100.00
51687;BME280;37774;52.192;4.584;2022-09-27T11:21:37;102715.94;;;9.10;100.00
51687;BME280;37774;52.192;4.584;2022-09-27T11:24:25;102703.59;;;9.01;100.00
51687;BME280;37774;52.192;4.584;2022-09-27T11:27:05;102588.53;;;8.38;100.00
51687;BME280;37774;52.192;4.584;2022-09-27T11:29:42;102615.97;;;8.31;100.00
51687;BME280;37774;52.192;4.584;2022-09-27T11:32:20;102660.31;;;8.42;100.00
51687;BME280;37774;52.192;4.584;2022-09-27T11:37:50;102652.56;;;8.42;100.00
51687;BME280;37774;52.192;4.584;2022-09-27T11:40:26;102653.06;;;8.57;100.00
51687;BME280;37774;52.192;4.584;2022-09-27T11:43:32;102643.06;;;8.70;100.00
51687;BME280;37774;52.192;4.584;2022-09-27T11:46:11;102661.09;;;8.96;100.00
51687;BME280;37774;52.192;4.584;2022-09-27T11:48:54;102558.41;;;8.41;100.00
51687;BME280;37774;52.192;4.584;2022-09-27T11:51:32;102623.34;;;9.07;100.00
51687;BME280;37774;52.192;4.584;2022-09-27T11:54:21;102666.44;;;9.34;100.00
51687;BME280;37774;52.192;4.584;2022-09-27T11:56:56;102662.38;;;9.44;100.00
51687;BME280;37774;52.192;4.584;2022-09-27T11:59:39;102648.34;;;9.37;100.00
51687;BME280;37774;52.192;4.584;2022-09-27T12:02:21;102670.56;;;9.59;100.00
51687;BME280;37774;52.192;4.584;2022-09-27T12:05:16;102674.09;;;9.61;100.00
51687;BME280;37774;52.192;4.584;2022-09-27T12:07:53;102668.69;;;9.54;100.00
51687;BME280;37774;52.192;4.584;2022-09-27T12:10:26;102495.09;;;8.62;100.00
51687;BME280;37774;52.192;4.584;2022-09-27T12:12:55;102685.69;;;9.74;100.00
51687;BME280;37774;52.192;4.584;2022-09-27T12:15:25;102697.91;;;9.80;100.00
51687;BME280;37774;52.192;4.584;2022-09-27T12:17:59;102694.38;;;9.76;100.00
51687;BME280;37774;52.192;4.584;2022-09-27T12:20:31;102696.47;;;9.91;100.00
51687;BME280;37774;52.192;4.584;2022-09-27T12:23:02;102683.34;;;9.85;100.00
51687;BME280;37774;52.192;4.584;2022-09-27T12:25:36;102613.00;;;9.41;100.00
51687;BME280;37774;52.192;4.584;2022-09-27T12:28:11;102683.63;;;9.98;100.00
51687;BME280;37774;52.192;4.584;2022-09-27T12:30:41;102729.88;;;10.48;100.00
51687;BME280;37774;52.192;4.584;2022-09-27T12:33:17;102715.47;;;10.61;100.00
51687;BME280;37774;52.192;4.584;2022-09-27T12:35:51;102758.13;;;11.09;100.00
51687;BME280;37774;52.192;4.584;2022-09-27T12:38:26;102683.78;;;10.79;100.00
51687;BME280;37774;52.192;4.584;2022-09-27T12:40:57;102686.34;;;10.76;100.00
51687;BME280;37774;52.192;4.584;2022-09-27T12:43:27;102713.72;;;11.01;100.00
51687;BME280;37774;52.192;4.584;2022-09-27T12:46:05;102671.19;;;10.99;100.00
51687;BME280;37774;52.192;4.584;2022-09-27T12:48:39;102698.13;;;11.47;100.00
51687;BME280;37774;52.192;4.584;2022-09-27T12:51:11;102686.28;;;11.63;100.00
51687;BME280;37774;52.192;4.584;2022-09-27T12:53:51;102618.25;;;11.45;100.00
51687;BME280;37774;52.192;4.584;2022-09-27T12:56:37;102621.78;;;12.01;100.00
51687;BME280;37774;52.192;4.584;2022-09-27T13:02:21;102505.69;;;12.21;100.00
51687;BME280;37774;52.192;4.584;2022-09-27T13:08:17;102359.81;;;12.31;100.00
51687;BME280;37774;52.192;4.584;2022-09-27T13:10:53;102257.91;;;12.03;100.00
51687;BME280;37774;52.192;4.584;2022-09-27T13:13:26;102230.09;;;12.00;100.00
51687;BME280;37774;52.192;4.584;2022-09-27T13:15:56;102140.41;;;11.72;100.00